Terminal Aerodrome Forecast
Issued by NWS

Home | Current Version | Previous Version | Text Only | Print | Product List | Glossary On
Versions: 1 2 3 4 5 6 7 8 9 10 11 12 13 14 15 16 17 18 19
859
FTUS45 KVEF 300520
TAFHND
TAF
KHND 300520Z 3006/0106 17008KT P6SM SCT100 BKN150
     FM300700 26012KT P6SM VCSH SCT090 BKN120
     FM300900 34010KT P6SM -SHRA BKN060 OVC090
     FM302100 05008KT P6SM VCSH BKN060 BKN090=

USA.gov is the U.S. government's official web portal to all federal, state and local government web resources and services.